sensor_id;sensor_type;location;lat;lon;timestamp;pressure;altitude;pressure_sealevel;temperature;humidity
68320;BME280;55168;51.120;17.024;2024-01-30T00:00:00;101750;;;2.4;100.0
68320;BME280;55168;51.120;17.024;2024-01-30T00:01:00;101750;;;2.4;100.0
68320;BME280;55168;51.120;17.024;2024-01-30T00:02:00;101750;;;2.4;100.0
68320;BME280;55168;51.120;17.024;2024-01-30T00:03:00;101750;;;2.4;100.0
68320;BME280;55168;51.120;17.024;2024-01-30T00:04:00;101750;;;2.3;100.0
68320;BME280;55168;51.120;17.024;2024-01-30T00:05:00;101750;;;2.3;100.0
68320;BME280;55168;51.120;17.024;2024-01-30T00:06:00;101750;;;2.2;100.0
68320;BME280;55168;51.120;17.024;2024-01-30T00:07:00;101750;;;2.2;100.0
68320;BME280;55168;51.120;17.024;2024-01-30T00:08:00;101750;;;2.2;100.0
68320;BME280;55168;51.120;17.024;2024-01-30T00:09:00;101750;;;2.2;100.0
68320;BME280;55168;51.120;17.024;2024-01-30T00:10:00;101750;;;2.2;100.0
68320;BME280;55168;51.120;17.024;2024-01-30T00:11:00;101750;;;2.2;100.0
68320;BME280;55168;51.120;17.024;2024-01-30T00:12:00;101750;;;2.2;100.0
68320;BME280;55168;51.120;17.024;2024-01-30T00:13:00;101750;;;2.2;100.0
68320;BME280;55168;51.120;17.024;2024-01-30T00:14:00;101750;;;2.2;100.0
68320;BME280;55168;51.120;17.024;2024-01-30T00:15:00;101750;;;2.2;100.0
68320;BME280;55168;51.120;17.024;2024-01-30T00:16:00;101750;;;2.2;100.0
68320;BME280;55168;51.120;17.024;2024-01-30T00:17:00;101750;;;2.2;100.0
68320;BME280;55168;51.120;17.024;2024-01-30T00:18:00;101750;;;2.2;100.0
68320;BME280;55168;51.120;17.024;2024-01-30T00:19:00;101750;;;2.2;100.0
68320;BME280;55168;51.120;17.024;2024-01-30T00:20:00;101760;;;2.1;100.0
68320;BME280;55168;51.120;17.024;2024-01-30T00:21:00;101760;;;2.2;100.0
68320;BME280;55168;51.120;17.024;2024-01-30T00:22:00;101750;;;2.1;100.0
68320;BME280;55168;51.120;17.024;2024-01-30T00:23:00;101750;;;2.1;100.0
68320;BME280;55168;51.120;17.024;2024-01-30T00:24:00;101760;;;2.1;100.0
68320;BME280;55168;51.120;17.024;2024-01-30T00:25:00;101760;;;2.1;100.0
68320;BME280;55168;51.120;17.024;2024-01-30T00:26:00;101760;;;2.1;100.0
68320;BME280;55168;51.120;17.024;2024-01-30T00:27:00;101760;;;2.1;100.0
68320;BME280;55168;51.120;17.024;2024-01-30T00:28:00;101760;;;2.0;100.0
68320;BME280;55168;51.120;17.024;2024-01-30T00:29:00;101760;;;2.0;100.0
68320;BME280;55168;51.120;17.024;2024-01-30T00:30:00;101760;;;1.9;100.0
68320;BME280;55168;51.120;17.024;2024-01-30T00:31:00;101760;;;1.9;100.0
68320;BME280;55168;51.120;17.024;2024-01-30T00:32:00;101760;;;1.9;100.0
68320;BME280;55168;51.120;17.024;2024-01-30T00:33:00;101760;;;1.9;100.0
68320;BME280;55168;51.120;17.024;2024-01-30T00:34:00;101760;;;1.8;100.0
68320;BME280;55168;51.120;17.024;2024-01-30T00:35:00;101760;;;1.8;100.0
68320;BME280;55168;51.120;17.024;2024-01-30T00:36:00;101760;;;1.8;100.0
68320;BME280;55168;51.120;17.024;2024-01-30T00:37:00;101760;;;1.8;100.0
68320;BME280;55168;51.120;17.024;2024-01-30T00:38:00;101760;;;1.8;100.0
68320;BME280;55168;51.120;17.024;2024-01-30T00:39:00;101760;;;1.8;100.0
68320;BME280;55168;51.120;17.024;2024-01-30T00:40:00;101760;;;1.8;100.0
68320;BME280;55168;51.120;17.024;2024-01-30T00:41:00;101770;;;1.8;100.0
68320;BME280;55168;51.120;17.024;2024-01-30T00:42:00;101760;;;1.8;100.0
68320;BME280;55168;51.120;17.024;2024-01-30T00:43:00;101760;;;1.7;100.0
68320;BME280;55168;51.120;17.024;2024-01-30T00:44:00;101760;;;1.7;100.0
68320;BME280;55168;51.120;17.024;2024-01-30T00:45:00;101760;;;1.6;100.0
68320;BME280;55168;51.120;17.024;2024-01-30T00:46:00;101760;;;1.6;100.0
68320;BME280;55168;51.120;17.024;2024-01-30T00:47:00;101760;;;1.6;100.0
68320;BME280;55168;51.120;17.024;2024-01-30T00:48:00;101760;;;1.6;100.0
68320;BME280;55168;51.120;17.024;2024-01-30T00:49:00;101760;;;1.5;100.0
68320;BME280;55168;51.120;17.024;2024-01-30T00:50:00;101760;;;1.5;100.0
68320;BME280;55168;51.120;17.024;2024-01-30T00:51:00;101760;;;1.5;100.0
68320;BME280;55168;51.120;17.024;2024-01-30T00:52:00;101760;;;1.5;100.0
68320;BME280;55168;51.120;17.024;2024-01-30T00:53:00;101760;;;1.5;100.0
68320;BME280;55168;51.120;17.024;2024-01-30T00:54:00;101760;;;1.4;100.0
68320;BME280;55168;51.120;17.024;2024-01-30T00:55:00;101750;;;1.4;100.0
68320;BME280;55168;51.120;17.024;2024-01-30T00:56:00;101760;;;1.4;100.0
68320;BME280;55168;51.120;17.024;2024-01-30T00:57:00;101760;;;1.4;100.0
68320;BME280;55168;51.120;17.024;2024-01-30T00:58:00;101760;;;1.4;100.0
68320;BME280;55168;51.120;17.024;2024-01-30T00:59:00;101760;;;1.3;100.0
68320;BME280;55168;51.120;17.024;2024-01-30T01:00:00;101760;;;1.3;100.0
68320;BME280;55168;51.120;17.024;2024-01-30T01:01:00;101760;;;1.4;100.0
68320;BME280;55168;51.120;17.024;2024-01-30T01:02:00;101760;;;1.4;100.0
68320;BME280;55168;51.120;17.024;2024-01-30T01:03:00;101760;;;1.5;100.0
68320;BME280;55168;51.120;17.024;2024-01-30T01:04:00;101750;;;1.4;100.0
68320;BME280;55168;51.120;17.024;2024-01-30T01:05:00;101760;;;1.4;100.0
68320;BME280;55168;51.120;17.024;2024-01-30T01:06:00;101760;;;1.4;100.0
68320;BME280;55168;51.120;17.024;2024-01-30T01:07:00;101760;;;1.4;100.0
68320;BME280;55168;51.120;17.024;2024-01-30T01:08:00;101760;;;1.4;100.0
68320;BME280;55168;51.120;17.024;2024-01-30T01:09:00;101760;;;1.4;100.0
68320;BME280;55168;51.120;17.024;2024-01-30T01:10:00;101770;;;1.5;100.0
68320;BME280;55168;51.120;17.024;2024-01-30T01:11:00;101760;;;1.4;100.0
68320;BME280;55168;51.120;17.024;2024-01-30T01:12:00;101770;;;1.5;100.0
68320;BME280;55168;51.120;17.024;2024-01-30T01:13:00;101770;;;1.5;100.0
68320;BME280;55168;51.120;17.024;2024-01-30T01:14:00;101760;;;1.5;100.0
68320;BME280;55168;51.120;17.024;2024-01-30T01:15:00;101760;;;1.4;100.0
68320;BME280;55168;51.120;17.024;2024-01-30T01:16:00;101760;;;1.4;100.0
68320;BME280;55168;51.120;17.024;2024-01-30T01:17:00;101760;;;1.5;100.0
68320;BME280;55168;51.120;17.024;2024-01-30T01:18:00;101770;;;1.5;100.0
68320;BME280;55168;51.120;17.024;2024-01-30T01:19:00;101770;;;1.6;100.0
68320;BME280;55168;51.120;17.024;2024-01-30T01:20:00;101760;;;1.6;100.0
68320;BME280;55168;51.120;17.024;2024-01-30T01:21:00;101760;;;1.6;100.0
68320;BME280;55168;51.120;17.024;2024-01-30T01:22:00;101760;;;1.6;100.0
68320;BME280;55168;51.120;17.024;2024-01-30T01:23:00;101760;;;1.6;100.0
68320;BME280;55168;51.120;17.024;2024-01-30T01:24:00;101760;;;1.6;100.0
68320;BME280;55168;51.120;17.024;2024-01-30T01:25:00;101760;;;1.5;100.0
68320;BME280;55168;51.120;17.024;2024-01-30T01:26:00;101760;;;1.5;100.0
68320;BME280;55168;51.120;17.024;2024-01-30T01:27:00;101760;;;1.5;100.0
68320;BME280;55168;51.120;17.024;2024-01-30T01:28:00;101760;;;1.5;100.0
68320;BME280;55168;51.120;17.024;2024-01-30T01:29:00;101760;;;1.5;100.0
68320;BME280;55168;51.120;17.024;2024-01-30T01:30:00;101760;;;1.5;100.0
68320;BME280;55168;51.120;17.024;2024-01-30T01:31:00;101760;;;1.5;100.0
68320;BME280;55168;51.120;17.024;2024-01-30T01:32:00;101760;;;1.5;100.0
68320;BME280;55168;51.120;17.024;2024-01-30T01:33:00;101760;;;1.5;100.0
68320;BME280;55168;51.120;17.024;2024-01-30T01:34:00;101750;;;1.5;100.0
68320;BME280;55168;51.120;17.024;2024-01-30T01:35:00;101760;;;1.5;100.0
68320;BME280;55168;51.120;17.024;2024-01-30T01:36:00;101750;;;1.5;100.0
68320;BME280;55168;51.120;17.024;2024-01-30T01:37:00;101750;;;1.5;100.0
68320;BME280;55168;51.120;17.024;2024-01-30T01:38:00;101750;;;1.5;100.0
68320;BME280;55168;51.120;17.024;2024-01-30T01:39:00;101750;;;1.5;100.0
68320;BME280;55168;51.120;17.024;2024-01-30T01:40:00;101750;;;1.5;100.0
68320;BME280;55168;51.120;17.024;2024-01-30T01:41:00;101750;;;1.5;100.0
68320;BME280;55168;51.120;17.024;2024-01-30T01:42:00;101750;;;1.4;100.0
68320;BME280;55168;51.120;17.024;2024-01-30T01:43:02;101750;;;1.5;100.0
68320;BME280;55168;51.120;17.024;2024-01-30T01:44:00;101750;;;1.5;100.0
68320;BME280;55168;51.120;17.024;2024-01-30T01:45:00;101750;;;1.5;100.0
68320;BME280;55168;51.120;17.024;2024-01-30T01:46:00;101750;;;1.5;100.0
68320;BME280;55168;51.120;17.024;2024-01-30T01:47:00;101750;;;1.5;100.0
68320;BME280;55168;51.120;17.024;2024-01-30T01:48:00;101750;;;1.5;100.0
68320;BME280;55168;51.120;17.024;2024-01-30T01:49:02;101750;;;1.5;100.0
68320;BME280;55168;51.120;17.024;2024-01-30T01:50:00;101750;;;1.5;100.0
68320;BME280;55168;51.120;17.024;2024-01-30T01:51:00;101750;;;1.5;100.0
68320;BME280;55168;51.120;17.024;2024-01-30T01:52:00;101750;;;1.5;100.0
68320;BME280;55168;51.120;17.024;2024-01-30T01:53:00;101750;;;1.5;100.0
68320;BME280;55168;51.120;17.024;2024-01-30T01:54:01;101750;;;1.5;100.0
68320;BME280;55168;51.120;17.024;2024-01-30T01:55:00;101750;;;1.4;100.0
68320;BME280;55168;51.120;17.024;2024-01-30T01:56:00;101750;;;1.4;100.0
68320;BME280;55168;51.120;17.024;2024-01-30T01:57:00;101750;;;1.3;100.0
68320;BME280;55168;51.120;17.024;2024-01-30T01:58:00;101750;;;1.3;100.0
68320;BME280;55168;51.120;17.024;2024-01-30T01:59:03;101750;;;1.2;100.0
68320;BME280;55168;51.120;17.024;2024-01-30T02:00:01;101750;;;1.2;100.0
68320;BME280;55168;51.120;17.024;2024-01-30T02:01:00;101750;;;1.2;100.0
68320;BME280;55168;51.120;17.024;2024-01-30T02:02:00;101750;;;1.2;100.0
68320;BME280;55168;51.120;17.024;2024-01-30T02:03:00;101750;;;1.1;100.0
68320;BME280;55168;51.120;17.024;2024-01-30T02:04:00;101740;;;1.1;100.0
68320;BME280;55168;51.120;17.024;2024-01-30T02:05:00;101740;;;1.1;100.0
68320;BME280;55168;51.120;17.024;2024-01-30T02:06:00;101740;;;1.1;100.0
68320;BME280;55168;51.120;17.024;2024-01-30T02:07:00;101740;;;1.1;100.0
68320;BME280;55168;51.120;17.024;2024-01-30T02:08:00;101740;;;1.1;100.0
68320;BME280;55168;51.120;17.024;2024-01-30T02:09:00;101740;;;1.1;100.0
68320;BME280;55168;51.120;17.024;2024-01-30T02:10:00;101740;;;1.1;100.0
68320;BME280;55168;51.120;17.024;2024-01-30T02:11:00;101740;;;1.2;100.0
68320;BME280;55168;51.120;17.024;2024-01-30T02:12:00;101740;;;1.2;100.0
68320;BME280;55168;51.120;17.024;2024-01-30T02:13:00;101740;;;1.2;100.0
68320;BME280;55168;51.120;17.024;2024-01-30T02:14:04;101740;;;1.3;100.0
68320;BME280;55168;51.120;17.024;2024-01-30T02:15:00;101740;;;1.3;100.0
68320;BME280;55168;51.120;17.024;2024-01-30T02:16:00;101740;;;1.4;100.0
68320;BME280;55168;51.120;17.024;2024-01-30T02:17:00;101740;;;1.4;100.0
68320;BME280;55168;51.120;17.024;2024-01-30T02:18:00;101740;;;1.5;100.0
68320;BME280;55168;51.120;17.024;2024-01-30T02:19:00;101730;;;1.5;100.0
68320;BME280;55168;51.120;17.024;2024-01-30T02:20:00;101730;;;1.5;100.0
68320;BME280;55168;51.120;17.024;2024-01-30T02:21:04;101740;;;1.5;100.0
68320;BME280;55168;51.120;17.024;2024-01-30T02:22:00;101740;;;1.5;100.0
68320;BME280;55168;51.120;17.024;2024-01-30T02:23:00;101740;;;1.5;100.0
68320;BME280;55168;51.120;17.024;2024-01-30T02:24:00;101730;;;1.4;100.0
68320;BME280;55168;51.120;17.024;2024-01-30T02:25:00;101730;;;1.4;100.0
68320;BME280;55168;51.120;17.024;2024-01-30T02:26:00;101730;;;1.4;100.0
68320;BME280;55168;51.120;17.024;2024-01-30T02:27:00;101730;;;1.4;100.0
68320;BME280;55168;51.120;17.024;2024-01-30T02:28:00;101730;;;1.3;100.0
68320;BME280;55168;51.120;17.024;2024-01-30T02:29:00;101730;;;1.3;100.0
68320;BME280;55168;51.120;17.024;2024-01-30T02:30:00;101730;;;1.3;100.0
68320;BME280;55168;51.120;17.024;2024-01-30T02:31:00;101740;;;1.3;100.0
68320;BME280;55168;51.120;17.024;2024-01-30T02:32:00;101740;;;1.3;100.0
68320;BME280;55168;51.120;17.024;2024-01-30T02:33:00;101730;;;1.3;100.0
68320;BME280;55168;51.120;17.024;2024-01-30T02:34:00;101730;;;1.3;100.0
68320;BME280;55168;51.120;17.024;2024-01-30T02:35:00;101740;;;1.3;100.0
68320;BME280;55168;51.120;17.024;2024-01-30T02:36:00;101730;;;1.3;100.0
68320;BME280;55168;51.120;17.024;2024-01-30T02:37:00;101730;;;1.3;100.0
68320;BME280;55168;51.120;17.024;2024-01-30T02:38:00;101730;;;1.3;100.0
68320;BME280;55168;51.120;17.024;2024-01-30T02:39:00;101730;;;1.3;100.0
68320;BME280;55168;51.120;17.024;2024-01-30T02:40:00;101730;;;1.3;100.0
68320;BME280;55168;51.120;17.024;2024-01-30T02:41:00;101730;;;1.3;100.0
68320;BME280;55168;51.120;17.024;2024-01-30T02:42:00;101730;;;1.3;100.0
68320;BME280;55168;51.120;17.024;2024-01-30T02:43:01;101730;;;1.3;100.0
68320;BME280;55168;51.120;17.024;2024-01-30T02:44:00;101740;;;1.3;100.0
68320;BME280;55168;51.120;17.024;2024-01-30T02:45:00;101740;;;1.3;100.0
68320;BME280;55168;51.120;17.024;2024-01-30T02:46:00;101740;;;1.4;100.0
68320;BME280;55168;51.120;17.024;2024-01-30T02:47:00;101740;;;1.4;100.0
68320;BME280;55168;51.120;17.024;2024-01-30T02:48:00;101740;;;1.4;100.0
68320;BME280;55168;51.120;17.024;2024-01-30T02:49:00;101730;;;1.4;100.0
68320;BME280;55168;51.120;17.024;2024-01-30T02:50:00;101740;;;1.4;100.0
68320;BME280;55168;51.120;17.024;2024-01-30T02:51:00;101740;;;1.3;100.0
68320;BME280;55168;51.120;17.024;2024-01-30T02:52:00;101730;;;1.3;100.0
68320;BME280;55168;51.120;17.024;2024-01-30T02:53:00;101740;;;1.3;100.0
68320;BME280;55168;51.120;17.024;2024-01-30T02:54:00;101740;;;1.3;100.0
68320;BME280;55168;51.120;17.024;2024-01-30T02:55:00;101740;;;1.2;100.0
68320;BME280;55168;51.120;17.024;2024-01-30T02:56:00;101740;;;1.2;100.0
68320;BME280;55168;51.120;17.024;2024-01-30T02:57:00;101740;;;1.1;100.0
68320;BME280;55168;51.120;17.024;2024-01-30T02:58:00;101740;;;1.1;100.0
68320;BME280;55168;51.120;17.024;2024-01-30T02:59:00;101740;;;1.0;100.0
68320;BME280;55168;51.120;17.024;2024-01-30T03:00:00;101750;;;1.0;100.0
68320;BME280;55168;51.120;17.024;2024-01-30T03:01:00;101740;;;1.1;100.0
68320;BME280;55168;51.120;17.024;2024-01-30T03:02:00;101740;;;1.0;100.0
68320;BME280;55168;51.120;17.024;2024-01-30T03:03:00;101740;;;1.0;100.0
68320;BME280;55168;51.120;17.024;2024-01-30T03:04:00;101740;;;1.0;100.0
68320;BME280;55168;51.120;17.024;2024-01-30T03:05:00;101740;;;1.0;100.0
68320;BME280;55168;51.120;17.024;2024-01-30T03:06:00;101730;;;1.1;100.0
68320;BME280;55168;51.120;17.024;2024-01-30T03:07:00;101740;;;1.1;100.0
68320;BME280;55168;51.120;17.024;2024-01-30T03:08:00;101730;;;1.0;100.0
68320;BME280;55168;51.120;17.024;2024-01-30T03:09:00;101730;;;1.0;100.0
68320;BME280;55168;51.120;17.024;2024-01-30T03:10:00;101730;;;1.1;100.0
68320;BME280;55168;51.120;17.024;2024-01-30T03:11:00;101740;;;1.1;100.0
68320;BME280;55168;51.120;17.024;2024-01-30T03:12:00;101740;;;1.1;100.0
68320;BME280;55168;51.120;17.024;2024-01-30T03:13:00;101740;;;1.1;100.0
68320;BME280;55168;51.120;17.024;2024-01-30T03:14:00;101740;;;1.0;100.0
68320;BME280;55168;51.120;17.024;2024-01-30T03:15:00;101740;;;1.0;100.0
68320;BME280;55168;51.120;17.024;2024-01-30T03:16:00;101740;;;1.0;100.0
68320;BME280;55168;51.120;17.024;2024-01-30T03:17:00;101740;;;1.0;100.0
68320;BME280;55168;51.120;17.024;2024-01-30T03:18:00;101740;;;1.0;100.0
68320;BME280;55168;51.120;17.024;2024-01-30T03:19:00;101740;;;1.0;100.0
68320;BME280;55168;51.120;17.024;2024-01-30T03:20:00;101740;;;0.9;100.0
68320;BME280;55168;51.120;17.024;2024-01-30T03:21:00;101730;;;0.9;100.0
68320;BME280;55168;51.120;17.024;2024-01-30T03:22:00;101740;;;0.9;100.0
68320;BME280;55168;51.120;17.024;2024-01-30T03:23:00;101740;;;0.9;100.0
68320;BME280;55168;51.120;17.024;2024-01-30T03:24:00;101730;;;0.9;100.0
68320;BME280;55168;51.120;17.024;2024-01-30T03:25:00;101730;;;1.0;100.0
68320;BME280;55168;51.120;17.024;2024-01-30T03:26:00;101730;;;1.0;100.0
68320;BME280;55168;51.120;17.024;2024-01-30T03:27:00;101730;;;1.0;100.0
68320;BME280;55168;51.120;17.024;2024-01-30T03:28:00;101730;;;1.0;100.0
68320;BME280;55168;51.120;17.024;2024-01-30T03:29:00;101730;;;1.1;100.0
68320;BME280;55168;51.120;17.024;2024-01-30T03:30:00;101730;;;1.1;100.0
68320;BME280;55168;51.120;17.024;2024-01-30T03:31:00;101730;;;1.1;100.0
68320;BME280;55168;51.120;17.024;2024-01-30T03:32:00;101730;;;1.2;100.0
68320;BME280;55168;51.120;17.024;2024-01-30T03:33:00;101730;;;1.1;100.0
68320;BME280;55168;51.120;17.024;2024-01-30T03:34:01;101730;;;1.1;100.0
68320;BME280;55168;51.120;17.024;2024-01-30T03:35:00;101730;;;1.1;100.0
68320;BME280;55168;51.120;17.024;2024-01-30T03:36:04;101730;;;1.1;100.0
68320;BME280;55168;51.120;17.024;2024-01-30T03:37:00;101730;;;1.1;100.0
68320;BME280;55168;51.120;17.024;2024-01-30T03:38:00;101720;;;1.1;100.0
68320;BME280;55168;51.120;17.024;2024-01-30T03:39:00;101720;;;1.1;100.0
68320;BME280;55168;51.120;17.024;2024-01-30T03:40:00;101720;;;1.1;100.0
68320;BME280;55168;51.120;17.024;2024-01-30T03:41:00;101720;;;1.1;100.0
68320;BME280;55168;51.120;17.024;2024-01-30T03:42:00;101720;;;1.1;100.0
68320;BME280;55168;51.120;17.024;2024-01-30T03:43:00;101710;;;1.1;100.0
68320;BME280;55168;51.120;17.024;2024-01-30T03:44:00;101720;;;1.1;100.0
68320;BME280;55168;51.120;17.024;2024-01-30T03:45:01;101720;;;1.1;100.0
68320;BME280;55168;51.120;17.024;2024-01-30T03:46:00;101720;;;1.1;100.0
68320;BME280;55168;51.120;17.024;2024-01-30T03:47:00;101720;;;1.1;100.0
68320;BME280;55168;51.120;17.024;2024-01-30T03:48:00;101710;;;1.1;100.0
68320;BME280;55168;51.120;17.024;2024-01-30T03:49:00;101710;;;1.1;100.0
68320;BME280;55168;51.120;17.024;2024-01-30T03:50:00;101720;;;1.0;100.0
68320;BME280;55168;51.120;17.024;2024-01-30T03:51:00;101710;;;1.0;100.0
68320;BME280;55168;51.120;17.024;2024-01-30T03:52:00;101710;;;1.0;100.0
68320;BME280;55168;51.120;17.024;2024-01-30T03:53:00;101710;;;0.9;100.0
68320;BME280;55168;51.120;17.024;2024-01-30T03:54:00;101710;;;0.9;100.0
68320;BME280;55168;51.120;17.024;2024-01-30T03:55:00;101710;;;0.9;100.0
68320;BME280;55168;51.120;17.024;2024-01-30T03:56:00;101710;;;0.9;100.0
68320;BME280;55168;51.120;17.024;2024-01-30T03:57:00;101710;;;0.9;100.0
68320;BME280;55168;51.120;17.024;2024-01-30T03:58:00;101710;;;0.9;100.0
68320;BME280;55168;51.120;17.024;2024-01-30T03:59:00;101720;;;0.9;100.0
68320;BME280;55168;51.120;17.024;2024-01-30T04:00:00;101720;;;0.9;100.0
68320;BME280;55168;51.120;17.024;2024-01-30T04:01:00;101720;;;0.9;100.0
68320;BME280;55168;51.120;17.024;2024-01-30T04:02:00;101720;;;0.8;100.0
68320;BME280;55168;51.120;17.024;2024-01-30T04:03:00;101720;;;0.8;100.0
68320;BME280;55168;51.120;17.024;2024-01-30T04:04:00;101720;;;0.7;100.0
68320;BME280;55168;51.120;17.024;2024-01-30T04:05:00;101720;;;0.7;100.0
68320;BME280;55168;51.120;17.024;2024-01-30T04:06:00;101720;;;0.7;100.0
68320;BME280;55168;51.120;17.024;2024-01-30T04:07:00;101720;;;0.8;100.0
68320;BME280;55168;51.120;17.024;2024-01-30T04:08:00;101720;;;0.8;100.0
68320;BME280;55168;51.120;17.024;2024-01-30T04:09:00;101720;;;0.9;100.0
68320;BME280;55168;51.120;17.024;2024-01-30T04:10:00;101720;;;0.9;100.0
68320;BME280;55168;51.120;17.024;2024-01-30T04:11:04;101720;;;0.9;100.0
68320;BME280;55168;51.120;17.024;2024-01-30T04:12:00;101720;;;0.9;100.0
68320;BME280;55168;51.120;17.024;2024-01-30T04:13:00;101720;;;0.9;100.0
68320;BME280;55168;51.120;17.024;2024-01-30T04:14:00;101720;;;0.9;100.0
68320;BME280;55168;51.120;17.024;2024-01-30T04:15:00;101720;;;0.9;100.0
68320;BME280;55168;51.120;17.024;2024-01-30T04:16:00;101720;;;0.9;100.0
68320;BME280;55168;51.120;17.024;2024-01-30T04:17:00;101720;;;0.9;100.0
68320;BME280;55168;51.120;17.024;2024-01-30T04:18:00;101720;;;0.9;100.0
68320;BME280;55168;51.120;17.024;2024-01-30T04:19:00;101720;;;0.9;100.0
68320;BME280;55168;51.120;17.024;2024-01-30T04:20:00;101720;;;0.9;100.0
68320;BME280;55168;51.120;17.024;2024-01-30T04:21:00;101720;;;0.9;100.0
68320;BME280;55168;51.120;17.024;2024-01-30T04:22:00;101720;;;1.0;100.0
68320;BME280;55168;51.120;17.024;2024-01-30T04:23:00;101710;;;1.0;100.0
68320;BME280;55168;51.120;17.024;2024-01-30T04:24:00;101720;;;1.0;100.0
68320;BME280;55168;51.120;17.024;2024-01-30T04:25:00;101720;;;1.0;100.0
68320;BME280;55168;51.120;17.024;2024-01-30T04:26:00;101720;;;1.0;100.0
68320;BME280;55168;51.120;17.024;2024-01-30T04:27:00;101710;;;1.0;100.0
68320;BME280;55168;51.120;17.024;2024-01-30T04:28:00;101720;;;1.0;100.0
68320;BME280;55168;51.120;17.024;2024-01-30T04:29:00;101720;;;1.0;100.0
68320;BME280;55168;51.120;17.024;2024-01-30T04:30:00;101710;;;1.0;100.0
68320;BME280;55168;51.120;17.024;2024-01-30T04:31:00;101710;;;1.1;100.0
68320;BME280;55168;51.120;17.024;2024-01-30T04:33:00;101720;;;1.1;100.0
68320;BME280;55168;51.120;17.024;2024-01-30T04:34:00;101720;;;1.1;100.0
68320;BME280;55168;51.120;17.024;2024-01-30T04:35:00;101710;;;1.1;100.0
68320;BME280;55168;51.120;17.024;2024-01-30T04:36:00;101710;;;1.1;100.0
68320;BME280;55168;51.120;17.024;2024-01-30T04:37:00;101710;;;1.0;100.0
68320;BME280;55168;51.120;17.024;2024-01-30T04:38:00;101720;;;1.0;100.0
68320;BME280;55168;51.120;17.024;2024-01-30T04:39:00;101720;;;1.0;100.0
68320;BME280;55168;51.120;17.024;2024-01-30T04:40:00;101720;;;1.0;100.0
68320;BME280;55168;51.120;17.024;2024-01-30T04:41:00;101720;;;1.0;100.0
68320;BME280;55168;51.120;17.024;2024-01-30T04:42:00;101720;;;1.0;100.0
68320;BME280;55168;51.120;17.024;2024-01-30T04:43:00;101720;;;1.0;100.0
68320;BME280;55168;51.120;17.024;2024-01-30T04:44:00;101720;;;1.1;100.0
68320;BME280;55168;51.120;17.024;2024-01-30T04:45:00;101720;;;1.1;100.0
68320;BME280;55168;51.120;17.024;2024-01-30T04:46:00;101720;;;1.1;100.0
68320;BME280;55168;51.120;17.024;2024-01-30T04:47:00;101720;;;1.1;100.0
68320;BME280;55168;51.120;17.024;2024-01-30T04:48:00;101720;;;1.1;100.0
68320;BME280;55168;51.120;17.024;2024-01-30T04:49:00;101720;;;1.1;100.0
68320;BME280;55168;51.120;17.024;2024-01-30T04:50:01;101720;;;1.1;100.0
68320;BME280;55168;51.120;17.024;2024-01-30T04:51:00;101720;;;1.1;100.0
68320;BME280;55168;51.120;17.024;2024-01-30T04:52:00;101720;;;1.1;100.0
68320;BME280;55168;51.120;17.024;2024-01-30T04:53:00;101720;;;1.1;100.0
68320;BME280;55168;51.120;17.024;2024-01-30T04:54:00;101720;;;1.1;100.0
68320;BME280;55168;51.120;17.024;2024-01-30T04:55:00;101720;;;1.1;100.0
68320;BME280;55168;51.120;17.024;2024-01-30T04:56:00;101720;;;1.1;100.0
68320;BME280;55168;51.120;17.024;2024-01-30T04:57:00;101720;;;1.1;100.0
68320;BME280;55168;51.120;17.024;2024-01-30T04:58:00;101730;;;1.1;100.0
68320;BME280;55168;51.120;17.024;2024-01-30T04:59:00;101730;;;1.1;100.0
68320;BME280;55168;51.120;17.024;2024-01-30T05:00:00;101730;;;1.1;100.0
68320;BME280;55168;51.120;17.024;2024-01-30T05:01:00;101730;;;1.1;100.0
68320;BME280;55168;51.120;17.024;2024-01-30T05:02:00;101720;;;1.1;100.0
68320;BME280;55168;51.120;17.024;2024-01-30T05:03:00;101720;;;1.1;100.0
68320;BME280;55168;51.120;17.024;2024-01-30T05:04:00;101720;;;1.1;100.0
68320;BME280;55168;51.120;17.024;2024-01-30T05:05:00;101720;;;1.1;100.0
68320;BME280;55168;51.120;17.024;2024-01-30T05:06:00;101720;;;1.1;100.0
68320;BME280;55168;51.120;17.024;2024-01-30T05:07:00;101720;;;1.1;100.0
68320;BME280;55168;51.120;17.024;2024-01-30T05:08:00;101720;;;1.1;100.0
68320;BME280;55168;51.120;17.024;2024-01-30T05:09:00;101720;;;1.1;100.0
68320;BME280;55168;51.120;17.024;2024-01-30T05:10:00;101720;;;1.1;100.0
68320;BME280;55168;51.120;17.024;2024-01-30T05:11:00;101720;;;1.1;100.0
68320;BME280;55168;51.120;17.024;2024-01-30T05:12:00;101720;;;1.1;100.0
68320;BME280;55168;51.120;17.024;2024-01-30T05:13:00;101720;;;1.0;100.0
68320;BME280;55168;51.120;17.024;2024-01-30T05:14:00;101720;;;1.0;100.0
68320;BME280;55168;51.120;17.024;2024-01-30T05:15:00;101730;;;1.0;100.0
68320;BME280;55168;51.120;17.024;2024-01-30T05:16:01;101720;;;1.0;100.0
68320;BME280;55168;51.120;17.024;2024-01-30T05:17:00;101720;;;1.0;100.0
68320;BME280;55168;51.120;17.024;2024-01-30T05:18:00;101720;;;1.0;100.0
68320;BME280;55168;51.120;17.024;2024-01-30T05:19:00;101720;;;1.0;100.0
68320;BME280;55168;51.120;17.024;2024-01-30T05:20:00;101720;;;1.0;100.0
68320;BME280;55168;51.120;17.024;2024-01-30T05:21:01;101720;;;1.0;100.0
68320;BME280;55168;51.120;17.024;2024-01-30T05:22:00;101720;;;1.0;100.0
68320;BME280;55168;51.120;17.024;2024-01-30T05:23:00;101710;;;0.9;100.0
68320;BME280;55168;51.120;17.024;2024-01-30T05:24:00;101720;;;0.9;100.0
68320;BME280;55168;51.120;17.024;2024-01-30T05:25:00;101710;;;0.9;100.0
68320;BME280;55168;51.120;17.024;2024-01-30T05:26:00;101710;;;0.9;100.0
68320;BME280;55168;51.120;17.024;2024-01-30T05:27:00;101710;;;0.9;100.0
68320;BME280;55168;51.120;17.024;2024-01-30T05:28:00;101710;;;0.9;100.0
68320;BME280;55168;51.120;17.024;2024-01-30T05:29:00;101710;;;0.9;100.0
68320;BME280;55168;51.120;17.024;2024-01-30T05:30:00;101720;;;0.9;100.0
68320;BME280;55168;51.120;17.024;2024-01-30T05:31:00;101720;;;0.9;100.0